createdAt,value
2022-10-21T00:02:08.978Z,120.90
2022-10-21T00:04:40.540Z,119.70
2022-10-21T00:07:11.760Z,122.22
2022-10-21T00:09:43.160Z,124.20
2022-10-21T00:12:14.230Z,118.03
2022-10-21T00:14:45.718Z,122.82
2022-10-21T00:17:19.488Z,116.93
2022-10-21T00:19:50.983Z,112.13
2022-10-21T00:22:22.044Z,121.03
2022-10-21T00:24:53.391Z,113.30
2022-10-21T00:27:24.572Z,121.22
2022-10-21T00:29:56.101Z,118.35
2022-10-21T00:32:29.919Z,113.20
2022-10-21T00:35:01.735Z,117.70
2022-10-21T00:37:33.929Z,108.50
2022-10-21T00:40:05.557Z,119.82
2022-10-21T00:42:46.404Z,115.93
2022-10-21T00:45:23.561Z,113.07
2022-10-21T00:48:02.393Z,118.53
2022-10-21T00:50:42.418Z,116.40
2022-10-21T00:53:18.303Z,115.68
2022-10-21T00:55:53.289Z,115.00
2022-10-21T00:58:27.922Z,118.10
2022-10-21T01:01:01.981Z,120.18
2022-10-21T01:03:36.802Z,115.18
2022-10-21T01:06:11.841Z,119.28
2022-10-21T01:08:43.585Z,111.07
2022-10-21T01:11:17.291Z,115.20
2022-10-21T01:14:04.252Z,111.95
2022-10-21T01:16:47.262Z,102.13
2022-10-21T01:19:47.409Z,111.43
2022-10-21T01:22:28.525Z,110.63
2022-10-21T01:25:22.501Z,115.05
2022-10-21T01:28:01.538Z,110.68
2022-10-21T01:30:41.355Z,112.18
2022-10-21T01:33:38.616Z,108.60
2022-10-21T01:36:29.067Z,115.53
2022-10-21T01:39:11.942Z,108.25
2022-10-21T01:41:46.673Z,105.50
2022-10-21T01:44:24.086Z,106.93
2022-10-21T01:47:00.952Z,109.95
2022-10-21T01:49:36.268Z,109.63
2022-10-21T01:52:08.331Z,107.75
2022-10-21T01:54:44.046Z,103.10
2022-10-21T01:57:20.091Z,112.45
2022-10-21T01:59:52.644Z,112.72
2022-10-21T02:02:29.353Z,112.57
2022-10-21T02:05:04.098Z,109.60
2022-10-21T02:07:35.203Z,106.35
2022-10-21T02:10:07.710Z,104.57
2022-10-21T02:12:42.518Z,107.88
2022-10-21T02:15:16.314Z,106.85
2022-10-21T02:17:56.771Z,104.15
2022-10-21T02:20:31.571Z,100.22
2022-10-21T02:23:03.217Z,107.82
2022-10-21T02:25:39.365Z,107.50
2022-10-21T02:28:11.028Z,111.93
2022-10-21T02:30:50.223Z,103.78
2022-10-21T02:33:30.790Z,102.20
2022-10-21T02:36:10.846Z,102.57
2022-10-21T02:38:48.089Z,104.03
2022-10-21T02:41:23.596Z,102.53
2022-10-21T02:43:59.556Z,107.40
2022-10-21T02:46:38.705Z,101.38
2022-10-21T02:49:13.076Z,102.97
2022-10-21T02:51:45.501Z,103.88
2022-10-21T02:54:16.953Z,99.10
2022-10-21T02:56:48.447Z,103.47
2022-10-21T02:59:19.504Z,106.32
2022-10-21T03:01:50.893Z,107.07
2022-10-21T03:04:24.793Z,107.25
2022-10-21T03:06:56.387Z,101.55
2022-10-21T03:09:27.534Z,101.28
2022-10-21T03:11:59.026Z,106.10
2022-10-21T03:14:30.179Z,103.30
2022-10-21T03:17:01.601Z,106.28
2022-10-21T03:19:35.339Z,101.63
2022-10-21T03:22:06.757Z,100.25
2022-10-21T03:24:37.817Z,103.38
2022-10-21T03:27:09.226Z,102.50
2022-10-21T03:29:40.274Z,99.97
2022-10-21T03:32:11.719Z,97.03
2022-10-21T03:34:45.515Z,100.47
2022-10-21T03:37:16.988Z,104.55
2022-10-21T03:39:48.305Z,104.82
2022-10-21T03:42:19.657Z,99.72
2022-10-21T03:44:50.904Z,102.97
2022-10-21T03:47:22.213Z,102.68
2022-10-21T03:49:59.050Z,99.47
2022-10-21T03:52:30.453Z,99.65
2022-10-21T03:55:01.529Z,102.78
2022-10-21T03:57:32.943Z,96.70
2022-10-21T04:00:04.130Z,98.75
2022-10-21T04:02:43.801Z,99.00
2022-10-21T04:05:17.868Z,98.40
2022-10-21T04:07:52.954Z,97.78
2022-10-21T04:10:24.751Z,106.20
2022-10-21T04:12:56.126Z,104.25
2022-10-21T04:15:27.288Z,106.00
2022-10-21T04:17:58.646Z,95.97
2022-10-21T04:20:32.479Z,100.90
2022-10-21T04:23:04.187Z,101.47
2022-10-21T04:25:35.321Z,101.30
2022-10-21T04:28:06.975Z,103.68
2022-10-21T04:30:38.228Z,105.07
2022-10-21T04:33:09.538Z,101.32
2022-10-21T04:35:44.816Z,101.07
2022-10-21T04:38:16.233Z,103.10
2022-10-21T04:40:47.528Z,102.45
2022-10-21T04:43:18.911Z,103.85
2022-10-21T04:45:49.994Z,103.20
2022-10-21T04:48:21.353Z,103.47
2022-10-21T04:50:56.480Z,98.35
2022-10-21T04:53:27.915Z,100.47
2022-10-21T04:55:59.065Z,105.18
2022-10-21T04:58:30.455Z,100.70
2022-10-21T05:01:01.793Z,106.47
2022-10-21T05:03:33.226Z,107.00
2022-10-21T05:06:07.189Z,103.65
2022-10-21T05:08:38.760Z,98.53
2022-10-21T05:11:10.079Z,103.97
2022-10-21T05:13:41.550Z,104.37
2022-10-21T05:16:12.628Z,99.13
2022-10-21T05:18:44.054Z,104.35
2022-10-21T05:21:17.824Z,94.25
2022-10-21T05:23:49.313Z,101.90
2022-10-21T05:26:20.569Z,102.57
2022-10-21T05:28:52.078Z,106.23
2022-10-21T05:31:23.266Z,104.45
2022-10-21T05:33:54.792Z,107.60
2022-10-21T05:36:28.776Z,105.75
2022-10-21T05:39:00.220Z,109.90
2022-10-21T05:41:31.488Z,114.78
2022-10-21T05:44:02.844Z,123.15
2022-10-21T05:46:33.972Z,114.43
2022-10-21T05:49:05.364Z,121.22
2022-10-21T05:51:39.361Z,116.10
2022-10-21T05:54:10.746Z,118.90
2022-10-21T05:56:42.712Z,113.00
2022-10-21T05:59:14.488Z,124.15
2022-10-21T06:01:45.747Z,118.65
2022-10-21T06:04:17.313Z,120.77
2022-10-21T06:06:51.048Z,121.07
2022-10-21T06:09:22.485Z,122.78
2022-10-21T06:11:53.683Z,121.32
2022-10-21T06:14:25.084Z,120.93
2022-10-21T06:16:56.224Z,110.03
2022-10-21T06:19:27.678Z,123.35
2022-10-21T06:22:01.590Z,123.90
2022-10-21T06:24:33.270Z,120.00
2022-10-21T06:27:04.781Z,125.43
2022-10-21T06:29:36.238Z,126.22
2022-10-21T06:32:08.240Z,127.07
2022-10-21T06:34:39.608Z,121.75
2022-10-21T06:37:13.434Z,128.27
2022-10-21T06:39:44.916Z,122.20
2022-10-21T06:42:17.746Z,120.95
2022-10-21T06:44:53.523Z,128.32
2022-10-21T06:47:26.637Z,118.50
2022-10-21T06:49:58.002Z,128.13
2022-10-21T06:52:31.871Z,128.90
2022-10-21T06:55:03.261Z,133.95
2022-10-21T06:57:34.588Z,133.38
2022-10-21T07:00:06.765Z,142.90
2022-10-21T07:02:38.199Z,145.27
2022-10-21T07:05:10.734Z,144.68
2022-10-21T07:07:45.016Z,145.45
2022-10-21T07:10:16.622Z,158.05
2022-10-21T07:12:47.662Z,160.85
2022-10-21T07:15:19.168Z,166.20
2022-10-21T07:17:50.562Z,159.55
2022-10-21T07:20:22.051Z,160.23
2022-10-21T07:22:55.828Z,156.68
2022-10-21T07:25:27.232Z,162.82
2022-10-21T07:27:58.687Z,160.45
2022-10-21T07:30:31.833Z,172.90
2022-10-21T07:33:03.258Z,176.07
2022-10-21T07:35:34.727Z,172.90
2022-10-21T07:38:08.454Z,172.70
2022-10-21T07:40:43.116Z,173.55
2022-10-21T07:46:07.094Z,160.50
2022-10-21T07:48:38.423Z,169.55
2022-10-21T07:51:12.907Z,166.63
2022-10-21T07:53:46.818Z,161.07
2022-10-21T07:56:20.438Z,156.63
2022-10-21T07:58:51.796Z,164.57
2022-10-21T08:01:24.470Z,165.82
2022-10-21T08:03:57.418Z,167.82
2022-10-21T08:06:30.227Z,157.18
2022-10-21T08:11:36.909Z,162.50
2022-10-21T08:14:10.424Z,169.57
2022-10-21T08:16:42.516Z,173.70
2022-10-21T08:19:21.389Z,178.65
2022-10-21T08:21:52.892Z,177.30
2022-10-21T08:24:27.156Z,181.77
2022-10-21T08:26:58.802Z,181.93
2022-10-21T08:29:29.951Z,185.88
2022-10-21T08:32:01.424Z,180.02
2022-10-21T08:34:32.655Z,175.15
2022-10-21T08:37:04.472Z,188.85
2022-10-21T08:39:38.283Z,186.47
2022-10-21T08:42:14.327Z,178.65
2022-10-21T08:44:51.853Z,182.93
2022-10-21T08:47:33.695Z,182.45
2022-10-21T08:50:07.972Z,178.85
2022-10-21T08:52:45.201Z,176.52
2022-10-21T08:55:27.004Z,177.85
2022-10-21T08:57:58.388Z,185.13
2022-10-21T09:00:35.449Z,186.15
2022-10-21T09:03:19.398Z,184.75
2022-10-21T09:06:04.553Z,187.60
2022-10-21T09:08:42.559Z,189.95
2022-10-21T09:11:26.228Z,184.82
2022-10-21T09:14:22.724Z,190.85
2022-10-21T09:17:00.400Z,174.00
2022-10-21T09:19:43.408Z,191.38
2022-10-21T09:22:36.062Z,174.85
2022-10-21T09:25:21.518Z,189.40
2022-10-21T09:27:57.536Z,184.85
2022-10-21T09:30:29.468Z,175.07
2022-10-21T09:33:03.158Z,204.30
2022-10-21T09:35:39.536Z,177.30
2022-10-21T09:38:18.421Z,181.38
2022-10-21T09:40:52.718Z,201.05
2022-10-21T09:43:29.682Z,204.60
2022-10-21T09:46:01.965Z,187.35
2022-10-21T09:49:00.922Z,188.20
2022-10-21T09:51:36.955Z,184.63
2022-10-21T09:54:12.534Z,186.43
2022-10-21T09:56:50.132Z,182.23
2022-10-21T09:59:29.104Z,197.70
2022-10-21T10:02:31.054Z,188.50
2022-10-21T10:05:05.615Z,192.02
2022-10-21T10:07:39.000Z,187.50
2022-10-21T10:10:32.921Z,203.90
2022-10-21T10:13:04.348Z,187.65
2022-10-21T10:15:40.329Z,194.88
2022-10-21T10:18:23.245Z,201.73
2022-10-21T10:21:08.053Z,200.25
2022-10-21T10:23:49.629Z,200.05
2022-10-21T10:26:24.481Z,206.75
2022-10-21T10:28:59.001Z,201.00
2022-10-21T10:31:35.819Z,200.48
2022-10-21T10:34:10.455Z,212.52
2022-10-21T10:36:43.636Z,200.15
2022-10-21T10:39:22.648Z,201.43
2022-10-21T10:41:55.767Z,205.60
2022-10-21T10:44:34.087Z,212.35
2022-10-21T10:47:10.344Z,213.20
2022-10-21T10:49:45.052Z,215.90
2022-10-21T10:52:23.131Z,224.45
2022-10-21T10:55:21.802Z,216.25
2022-10-21T10:58:09.738Z,219.93
2022-10-21T11:00:48.091Z,212.05
2022-10-21T11:03:26.454Z,222.00
2022-10-21T11:06:07.870Z,226.00
2022-10-21T11:08:44.912Z,225.73
2022-10-21T11:11:23.040Z,225.10
2022-10-21T11:13:55.259Z,242.23
2022-10-21T11:17:00.099Z,237.45
2022-10-21T11:19:50.588Z,238.05
2022-10-21T11:22:34.313Z,219.43
2022-10-21T11:25:15.671Z,228.13
2022-10-21T11:28:05.950Z,224.10
2022-10-21T11:30:46.913Z,225.57
2022-10-21T11:33:27.111Z,229.88
2022-10-21T11:36:08.727Z,236.13
2022-10-21T11:39:06.233Z,259.38
2022-10-21T11:41:41.835Z,236.05
2022-10-21T11:44:21.168Z,239.13
2022-10-21T11:47:02.851Z,249.35
2022-10-21T11:49:48.447Z,238.88
2022-10-21T11:52:33.987Z,246.95
2022-10-21T11:55:35.183Z,243.80
2022-10-21T11:58:20.392Z,234.13
2022-10-21T12:01:00.230Z,240.82
2022-10-21T12:03:52.967Z,242.38
2022-10-21T12:06:38.611Z,251.48
2022-10-21T12:09:18.649Z,242.38
2022-10-21T12:11:55.660Z,242.57
2022-10-21T12:14:31.561Z,250.95
2022-10-21T12:17:08.756Z,251.02
2022-10-21T12:19:40.244Z,263.85
2022-10-21T12:22:14.187Z,275.27
2022-10-21T12:24:55.674Z,270.00
2022-10-21T12:27:33.088Z,257.23
2022-10-21T12:30:14.521Z,268.33
2022-10-21T12:32:55.317Z,260.00
2022-10-21T12:35:30.883Z,252.40
2022-10-21T12:38:23.485Z,261.80
2022-10-21T12:41:28.240Z,267.35
2022-10-21T12:44:23.435Z,259.25
2022-10-21T12:46:57.595Z,271.95
2022-10-21T12:49:33.780Z,259.42
2022-10-21T12:52:13.161Z,268.17
2022-10-21T12:54:53.825Z,272.17
2022-10-21T12:57:32.032Z,256.95
2022-10-21T13:00:33.319Z,257.70
2022-10-21T13:03:08.029Z,270.20
2022-10-21T13:06:04.030Z,275.05
2022-10-21T13:08:43.067Z,265.38
2022-10-21T13:11:42.357Z,272.35
2022-10-21T13:14:36.144Z,271.40
2022-10-21T13:17:32.112Z,265.08
2022-10-21T13:20:35.700Z,268.00
2022-10-21T13:23:39.696Z,264.60
2022-10-21T13:26:24.413Z,258.85
2022-10-21T13:29:24.853Z,259.13
2022-10-21T13:32:31.927Z,258.88
2022-10-21T13:35:32.843Z,267.55
2022-10-21T13:38:20.993Z,279.63
2022-10-21T13:40:55.443Z,272.98
2022-10-21T13:43:29.132Z,280.65
2022-10-21T13:46:08.591Z,270.55
2022-10-21T13:48:41.420Z,269.92
2022-10-21T13:51:22.336Z,278.40
2022-10-21T13:53:57.867Z,259.02
2022-10-21T13:56:31.798Z,273.83
2022-10-21T13:59:04.044Z,272.70
2022-10-21T14:01:48.997Z,279.48
2022-10-21T14:04:23.375Z,285.63
2022-10-21T14:07:01.237Z,297.08
2022-10-21T14:09:36.286Z,279.58
2022-10-21T14:12:10.459Z,273.58
2022-10-21T14:14:42.720Z,279.20
2022-10-21T14:17:20.656Z,266.95
2022-10-21T14:19:55.087Z,283.23
2022-10-21T14:22:31.649Z,274.95
2022-10-21T14:25:04.728Z,282.40
2022-10-21T14:27:38.647Z,276.60
2022-10-21T14:30:11.966Z,281.02
2022-10-21T14:32:44.949Z,274.48
2022-10-21T14:35:28.272Z,274.85
2022-10-21T14:38:04.521Z,284.73
2022-10-21T14:40:39.809Z,277.65
2022-10-21T14:43:22.133Z,276.42
2022-10-21T14:45:56.060Z,272.55
2022-10-21T14:48:30.439Z,277.85
2022-10-21T14:51:04.113Z,280.80
2022-10-21T14:53:46.634Z,268.92
2022-10-21T14:56:21.529Z,276.88
2022-10-21T14:59:00.457Z,276.92
2022-10-21T15:01:32.261Z,272.08
2022-10-21T15:04:04.580Z,275.77
2022-10-21T15:06:37.330Z,282.30
2022-10-21T15:09:23.330Z,285.58
2022-10-21T15:11:54.558Z,285.75
2022-10-21T15:14:34.909Z,293.30
2022-10-21T15:17:12.793Z,286.02
2022-10-21T15:19:48.025Z,281.15
2022-10-21T15:22:27.831Z,293.83
2022-10-21T15:25:07.439Z,289.17
2022-10-21T15:27:43.956Z,294.10
2022-10-21T15:30:20.408Z,285.77
2022-10-21T15:32:53.156Z,286.00
2022-10-21T15:35:26.155Z,278.67
2022-10-21T15:37:57.933Z,291.02
2022-10-21T15:40:35.897Z,279.00
2022-10-21T15:43:07.736Z,284.27
2022-10-21T15:45:39.576Z,283.58
2022-10-21T15:48:13.464Z,285.70
2022-10-21T15:50:45.547Z,274.65
2022-10-21T15:53:17.204Z,286.45
2022-10-21T15:55:51.953Z,288.48
2022-10-21T15:58:23.650Z,285.38
2022-10-21T16:00:55.992Z,278.05
2022-10-21T16:03:29.618Z,282.45
2022-10-21T16:06:01.936Z,282.55
2022-10-21T16:08:34.042Z,276.70
2022-10-21T16:11:09.242Z,280.25
2022-10-21T16:13:40.944Z,272.23
2022-10-21T16:16:21.255Z,277.48
2022-10-21T16:18:53.003Z,254.45
2022-10-21T16:21:26.187Z,275.15
2022-10-21T16:23:58.775Z,269.77
2022-10-21T16:26:34.512Z,266.80
2022-10-21T16:29:08.253Z,261.25
2022-10-21T16:31:40.612Z,263.35
2022-10-21T16:34:12.711Z,269.73
2022-10-21T16:37:05.382Z,259.40
2022-10-21T16:39:37.155Z,256.75
2022-10-21T16:42:13.763Z,265.95
2022-10-21T16:44:50.143Z,267.58
2022-10-21T16:47:43.799Z,268.02
2022-10-21T16:50:23.198Z,273.63
2022-10-21T16:52:55.532Z,283.23
2022-10-21T16:55:27.480Z,282.63
2022-10-21T17:00:34.481Z,258.63
2022-10-21T17:03:08.105Z,265.35
2022-10-21T17:05:40.451Z,278.90
2022-10-21T17:08:13.100Z,263.00
2022-10-21T17:10:44.941Z,270.08
2022-10-21T17:13:19.497Z,274.85
2022-10-21T17:15:51.764Z,269.02
2022-10-21T17:18:24.739Z,272.85
2022-10-21T17:20:56.853Z,267.27
2022-10-21T17:23:29.995Z,265.38
2022-10-21T17:26:02.787Z,258.92
2022-10-21T17:31:08.884Z,249.20
2022-10-21T17:33:43.193Z,256.38
2022-10-21T17:36:35.773Z,255.80
2022-10-21T17:39:09.015Z,252.80
2022-10-21T17:42:01.570Z,256.55
2022-10-21T17:44:36.594Z,268.15
2022-10-21T17:47:09.968Z,263.38
2022-10-21T17:50:01.802Z,250.65
2022-10-21T17:55:07.723Z,253.10
2022-10-21T17:57:42.131Z,254.38
2022-10-21T18:00:17.286Z,250.32
2022-10-21T18:02:49.692Z,258.63
2022-10-21T18:05:22.579Z,244.13
2022-10-21T18:07:54.979Z,259.33
2022-10-21T18:10:27.073Z,264.63
2022-10-21T18:15:34.985Z,240.05
2022-10-21T18:18:09.577Z,249.70
2022-10-21T18:21:27.425Z,251.73
2022-10-21T18:23:59.754Z,257.60
2022-10-21T18:26:33.999Z,253.88
2022-10-21T18:29:07.888Z,262.63
2022-10-21T18:32:02.348Z,256.20
2022-10-21T18:34:57.392Z,251.63
2022-10-21T18:37:52.533Z,254.18
2022-10-21T18:40:28.775Z,262.67
2022-10-21T18:43:01.115Z,258.48
2022-10-21T18:45:33.508Z,427.67
2022-10-21T18:48:10.657Z,298.50
2022-10-21T18:50:43.235Z,302.23
2022-10-21T18:53:35.349Z,314.88
2022-10-21T18:56:10.398Z,273.08
2022-10-21T18:58:44.758Z,247.60
2022-10-21T19:01:19.255Z,259.42
2022-10-21T19:03:55.152Z,255.98
2022-10-21T19:06:36.323Z,262.67
2022-10-21T19:09:30.422Z,256.00
2022-10-21T19:12:04.080Z,260.77
2022-10-21T19:14:35.960Z,253.80
2022-10-21T19:17:08.324Z,257.17
2022-10-21T19:19:42.820Z,255.45
2022-10-21T19:22:17.566Z,266.20
2022-10-21T19:24:49.654Z,252.57
2022-10-21T19:27:22.363Z,260.58
2022-10-21T19:30:14.823Z,270.10
2022-10-21T19:32:47.479Z,253.48
2022-10-21T19:38:00.499Z,257.48
2022-10-21T19:40:37.312Z,252.65
2022-10-21T19:43:09.698Z,247.45
2022-10-21T19:45:42.028Z,252.88
2022-10-21T19:48:16.327Z,253.52
2022-10-21T19:50:53.934Z,255.95
2022-10-21T19:53:26.284Z,262.52
2022-10-21T19:55:59.031Z,247.82
2022-10-21T19:58:31.312Z,253.02
2022-10-21T20:01:09.589Z,250.95
2022-10-21T20:04:02.711Z,249.32
2022-10-21T20:06:39.115Z,240.65
2022-10-21T20:09:36.425Z,260.48
2022-10-21T20:12:10.731Z,249.73
2022-10-21T20:14:42.975Z,253.18
2022-10-21T20:17:35.095Z,254.35
2022-10-21T20:20:10.314Z,251.23
2022-10-21T20:22:45.997Z,258.48
2022-10-21T20:25:18.627Z,261.23
2022-10-21T20:27:50.549Z,271.90
2022-10-21T20:30:22.733Z,250.35
2022-10-21T20:32:54.656Z,259.42
2022-10-21T20:35:26.878Z,251.45
2022-10-21T20:38:01.523Z,255.40
2022-10-21T20:40:33.455Z,259.55
2022-10-21T20:43:05.522Z,246.65
2022-10-21T20:48:08.911Z,231.30
2022-10-21T20:50:40.888Z,241.13
2022-10-21T20:53:15.235Z,238.38
2022-10-21T20:55:55.910Z,231.85
2022-10-21T20:58:30.616Z,246.02
2022-10-21T21:01:02.730Z,232.18
2022-10-21T21:03:34.913Z,231.45
2022-10-21T21:08:48.986Z,224.98
2022-10-21T21:14:01.322Z,200.57
2022-10-21T21:16:33.375Z,225.52
2022-10-21T21:19:06.793Z,236.13
2022-10-21T21:21:39.653Z,219.23
2022-10-21T21:24:13.531Z,233.27
2022-10-21T21:26:45.134Z,225.30
2022-10-21T21:29:16.887Z,231.27
2022-10-21T21:31:48.446Z,218.82
2022-10-21T21:34:19.667Z,220.98
2022-10-21T21:36:51.528Z,228.43
2022-10-21T21:39:25.558Z,236.95
2022-10-21T21:41:57.342Z,242.82
2022-10-21T21:44:28.486Z,246.97
2022-10-21T21:46:59.995Z,242.30
2022-10-21T21:49:31.409Z,244.80
2022-10-21T21:52:03.319Z,249.23
2022-10-21T21:54:37.327Z,244.48
2022-10-21T21:57:27.735Z,245.57
2022-10-21T21:59:59.606Z,252.75
2022-10-21T22:02:31.016Z,241.90
2022-10-21T22:05:02.232Z,248.57
2022-10-21T22:07:33.718Z,246.53
2022-10-21T22:10:08.283Z,252.23
2022-10-21T22:12:40.685Z,251.13
2022-10-21T22:15:29.716Z,239.70
2022-10-21T22:18:06.932Z,248.05
2022-10-21T22:20:38.167Z,239.23
2022-10-21T22:23:10.902Z,249.88
2022-10-21T22:28:16.200Z,227.20
2022-10-21T22:30:47.328Z,236.57
2022-10-21T22:33:19.148Z,240.95
2022-10-21T22:35:50.706Z,241.60
2022-10-21T22:38:22.679Z,241.68
2022-10-21T22:40:59.223Z,232.00
2022-10-21T22:43:32.569Z,233.40
2022-10-21T22:46:09.781Z,238.90
2022-10-21T22:48:54.468Z,239.57
2022-10-21T22:53:57.028Z,218.77
2022-10-21T22:56:30.903Z,227.57
2022-10-21T22:59:02.752Z,232.85
2022-10-21T23:01:34.434Z,228.32
2022-10-21T23:04:06.606Z,223.90
2022-10-21T23:06:38.260Z,221.13
2022-10-21T23:09:09.836Z,232.13
2022-10-21T23:11:43.627Z,234.93
2022-10-21T23:14:15.044Z,226.93
2022-10-21T23:16:46.391Z,242.75
2022-10-21T23:19:18.283Z,243.68
2022-10-21T23:21:49.517Z,226.10
2022-10-21T23:24:20.971Z,244.85
2022-10-21T23:26:58.970Z,241.50
2022-10-21T23:29:32.870Z,230.02
2022-10-21T23:32:04.015Z,234.77
2022-10-21T23:34:35.565Z,233.77
2022-10-21T23:37:07.030Z,230.45
2022-10-21T23:39:38.625Z,233.38
2022-10-21T23:42:12.276Z,234.20
2022-10-21T23:44:43.690Z,228.50
2022-10-21T23:47:14.771Z,236.10
2022-10-21T23:49:46.231Z,219.57
2022-10-21T23:52:17.536Z,220.85
2022-10-21T23:54:48.974Z,225.95
2022-10-21T23:57:22.798Z,225.90
2022-10-21T23:59:54.285Z,235.07
